sensor_id;sensor_type;location;lat;lon;timestamp;pressure;altitude;pressure_sealevel;temperature;humidity
10806;BME280;5455;53.224;6.000;2022-12-29T00:00:08;99674.91;;;9.50;100.00
10806;BME280;5455;53.224;6.000;2022-12-29T00:02:40;99674.16;;;9.56;100.00
10806;BME280;5455;53.224;6.000;2022-12-29T00:05:07;99678.91;;;9.59;100.00
10806;BME280;5455;53.224;6.000;2022-12-29T00:07:34;99679.75;;;9.63;100.00
10806;BME280;5455;53.224;6.000;2022-12-29T00:10:01;99692.34;;;9.64;100.00
10806;BME280;5455;53.224;6.000;2022-12-29T00:12:28;99677.00;;;9.67;100.00
10806;BME280;5455;53.224;6.000;2022-12-29T00:15:15;99683.31;;;9.67;100.00
10806;BME280;5455;53.224;6.000;2022-12-29T00:18:01;99673.06;;;9.68;100.00
10806;BME280;5455;53.224;6.000;2022-12-29T00:20:28;99681.75;;;9.70;100.00
10806;BME280;5455;53.224;6.000;2022-12-29T00:23:14;99667.56;;;9.68;100.00
10806;BME280;5455;53.224;6.000;2022-12-29T00:26:03;99655.34;;;9.62;100.00
10806;BME280;5455;53.224;6.000;2022-12-29T00:28:49;99657.31;;;9.61;100.00
10806;BME280;5455;53.224;6.000;2022-12-29T00:31:35;99678.56;;;9.64;100.00
10806;BME280;5455;53.224;6.000;2022-12-29T00:34:21;99650.66;;;9.66;100.00
10806;BME280;5455;53.224;6.000;2022-12-29T00:37:06;99660.88;;;9.65;100.00
10806;BME280;5455;53.224;6.000;2022-12-29T00:39:33;99657.72;;;9.63;100.00
10806;BME280;5455;53.224;6.000;2022-12-29T00:42:19;99652.22;;;9.63;100.00
10806;BME280;5455;53.224;6.000;2022-12-29T00:45:05;99649.47;;;9.63;100.00
10806;BME280;5455;53.224;6.000;2022-12-29T00:47:32;99644.38;;;9.65;100.00
10806;BME280;5455;53.224;6.000;2022-12-29T00:50:01;99648.31;;;9.68;100.00
10806;BME280;5455;53.224;6.000;2022-12-29T00:52:27;99638.91;;;9.72;100.00
10806;BME280;5455;53.224;6.000;2022-12-29T00:54:55;99652.25;;;9.70;100.00
10806;BME280;5455;53.224;6.000;2022-12-29T00:57:21;99655.44;;;9.72;100.00
10806;BME280;5455;53.224;6.000;2022-12-29T00:59:48;99639.31;;;9.74;100.00
10806;BME280;5455;53.224;6.000;2022-12-29T01:02:16;99632.22;;;9.73;100.00
10806;BME280;5455;53.224;6.000;2022-12-29T01:04:46;99639.72;;;9.76;100.00
10806;BME280;5455;53.224;6.000;2022-12-29T01:07:15;99641.69;;;9.76;100.00
10806;BME280;5455;53.224;6.000;2022-12-29T01:09:44;99646.00;;;9.77;100.00
10806;BME280;5455;53.224;6.000;2022-12-29T01:12:30;99632.22;;;9.73;100.00
10806;BME280;5455;53.224;6.000;2022-12-29T01:15:12;99631.06;;;9.74;100.00
10806;BME280;5455;53.224;6.000;2022-12-29T01:17:41;99616.13;;;9.75;100.00
10806;BME280;5455;53.224;6.000;2022-12-29T01:20:09;99619.31;;;9.81;100.00
10806;BME280;5455;53.224;6.000;2022-12-29T01:22:37;99624.03;;;9.80;100.00
10806;BME280;5455;53.224;6.000;2022-12-29T01:25:05;99629.53;;;9.80;100.00
10806;BME280;5455;53.224;6.000;2022-12-29T01:27:32;99606.69;;;9.76;100.00
10806;BME280;5455;53.224;6.000;2022-12-29T01:29:59;99611.41;;;9.76;100.00
10806;BME280;5455;53.224;6.000;2022-12-29T01:32:26;99616.91;;;9.72;100.00
10806;BME280;5455;53.224;6.000;2022-12-29T01:34:53;99602.72;;;9.70;100.00
10806;BME280;5455;53.224;6.000;2022-12-29T01:37:20;99607.41;;;9.66;100.00
10806;BME280;5455;53.224;6.000;2022-12-29T01:39:47;99601.13;;;9.66;100.00
10806;BME280;5455;53.224;6.000;2022-12-29T01:42:17;99603.09;;;9.65;100.00
10806;BME280;5455;53.224;6.000;2022-12-29T01:44:54;99612.91;;;9.63;100.00
10806;BME280;5455;53.224;6.000;2022-12-29T01:50:26;99605.00;;;9.58;100.00
10806;BME280;5455;53.224;6.000;2022-12-29T01:53:16;99610.09;;;9.56;100.00
10806;BME280;5455;53.224;6.000;2022-12-29T01:55:54;99584.50;;;9.48;100.00
10806;BME280;5455;53.224;6.000;2022-12-29T01:58:24;99583.28;;;9.42;100.00
10806;BME280;5455;53.224;6.000;2022-12-29T02:00:54;99582.88;;;9.40;100.00
10806;BME280;5455;53.224;6.000;2022-12-29T02:03:21;99586.41;;;9.40;100.00
10806;BME280;5455;53.224;6.000;2022-12-29T02:06:15;99593.47;;;9.41;100.00
10806;BME280;5455;53.224;6.000;2022-12-29T02:08:46;99590.72;;;9.41;100.00
10806;BME280;5455;53.224;6.000;2022-12-29T02:11:13;99586.78;;;9.39;100.00
10806;BME280;5455;53.224;6.000;2022-12-29T02:13:41;99590.34;;;9.39;100.00
10806;BME280;5455;53.224;6.000;2022-12-29T02:16:29;99589.53;;;9.39;100.00
10806;BME280;5455;53.224;6.000;2022-12-29T02:22:23;99584.78;;;9.32;100.00
10806;BME280;5455;53.224;6.000;2022-12-29T02:30:38;99558.75;;;8.75;100.00
10806;BME280;5455;53.224;6.000;2022-12-29T02:45:04;99545.22;;;8.56;100.00
10806;BME280;5455;53.224;6.000;2022-12-29T02:47:40;99558.66;;;8.68;100.00
10806;BME280;5455;53.224;6.000;2022-12-29T02:50:14;99553.59;;;8.70;100.00
10806;BME280;5455;53.224;6.000;2022-12-29T02:52:49;99543.78;;;8.69;100.00
10806;BME280;5455;53.224;6.000;2022-12-29T02:55:18;99554.72;;;8.66;100.00
10806;BME280;5455;53.224;6.000;2022-12-29T02:57:46;99564.91;;;8.65;100.00
10806;BME280;5455;53.224;6.000;2022-12-29T03:00:15;99550.03;;;8.66;100.00
10806;BME280;5455;53.224;6.000;2022-12-29T03:08:57;99536.31;;;8.70;100.00
10806;BME280;5455;53.224;6.000;2022-12-29T03:11:33;99546.88;;;8.64;100.00
10806;BME280;5455;53.224;6.000;2022-12-29T03:14:30;99543.69;;;8.62;100.00
10806;BME280;5455;53.224;6.000;2022-12-29T03:17:51;99552.41;;;8.71;100.00
10806;BME280;5455;53.224;6.000;2022-12-29T03:20:26;99549.28;;;8.69;100.00
10806;BME280;5455;53.224;6.000;2022-12-29T03:22:58;99543.34;;;8.64;100.00
10806;BME280;5455;53.224;6.000;2022-12-29T03:25:33;99542.94;;;8.62;100.00
10806;BME280;5455;53.224;6.000;2022-12-29T03:28:12;99540.16;;;8.58;100.00
10806;BME280;5455;53.224;6.000;2022-12-29T03:30:43;99536.22;;;8.59;100.00
10806;BME280;5455;53.224;6.000;2022-12-29T03:33:17;99542.94;;;8.62;100.00
10806;BME280;5455;53.224;6.000;2022-12-29T03:35:48;99536.66;;;8.61;100.00
10806;BME280;5455;53.224;6.000;2022-12-29T03:38:21;99533.91;;;8.61;100.00
10806;BME280;5455;53.224;6.000;2022-12-29T03:40:53;99541.72;;;8.59;100.00
10806;BME280;5455;53.224;6.000;2022-12-29T03:43:24;99542.84;;;8.55;100.00
10806;BME280;5455;53.224;6.000;2022-12-29T03:45:53;99548.22;;;8.44;100.00
10806;BME280;5455;53.224;6.000;2022-12-29T03:48:21;99546.56;;;8.36;100.00
10806;BME280;5455;53.224;6.000;2022-12-29T03:50:50;99548.50;;;8.32;100.00
10806;BME280;5455;53.224;6.000;2022-12-29T03:53:18;99537.88;;;8.30;100.00
10806;BME280;5455;53.224;6.000;2022-12-29T03:55:45;99551.22;;;8.28;100.00
10806;BME280;5455;53.224;6.000;2022-12-29T03:58:12;99547.25;;;8.26;100.00
10806;BME280;5455;53.224;6.000;2022-12-29T04:00:53;99545.56;;;8.18;100.00
10806;BME280;5455;53.224;6.000;2022-12-29T04:03:21;99545.91;;;8.13;100.00
10806;BME280;5455;53.224;6.000;2022-12-29T04:05:49;99550.94;;;8.07;100.00
10806;BME280;5455;53.224;6.000;2022-12-29T04:08:17;99543.50;;;8.08;100.00
10806;BME280;5455;53.224;6.000;2022-12-29T04:10:43;99543.84;;;8.06;100.00
10806;BME280;5455;53.224;6.000;2022-12-29T04:13:13;99538.69;;;8.01;100.00
10806;BME280;5455;53.224;6.000;2022-12-29T04:15:43;99564.19;;;8.02;100.00
10806;BME280;5455;53.224;6.000;2022-12-29T04:18:11;99558.72;;;8.05;100.00
10806;BME280;5455;53.224;6.000;2022-12-29T04:20:38;99555.22;;;8.08;100.00
10806;BME280;5455;53.224;6.000;2022-12-29T04:23:24;99555.22;;;8.08;100.00
10806;BME280;5455;53.224;6.000;2022-12-29T04:25:51;99546.59;;;8.06;100.00
10806;BME280;5455;53.224;6.000;2022-12-29T04:28:18;99551.72;;;8.08;100.00
10806;BME280;5455;53.224;6.000;2022-12-29T04:31:11;99565.06;;;8.09;100.00
10806;BME280;5455;53.224;6.000;2022-12-29T04:33:41;99561.97;;;8.14;100.00
10806;BME280;5455;53.224;6.000;2022-12-29T04:36:08;99564.38;;;8.16;100.00
10806;BME280;5455;53.224;6.000;2022-12-29T04:38:37;99561.97;;;8.14;100.00
10806;BME280;5455;53.224;6.000;2022-12-29T04:41:04;99565.06;;;8.09;100.00
10806;BME280;5455;53.224;6.000;2022-12-29T04:43:33;99570.56;;;8.09;100.00
10806;BME280;5455;53.224;6.000;2022-12-29T04:46:15;99557.63;;;8.10;100.00
10806;BME280;5455;53.224;6.000;2022-12-29T04:48:52;99569.72;;;8.05;100.00
10806;BME280;5455;53.224;6.000;2022-12-29T04:51:47;99563.91;;;8.10;100.00
10806;BME280;5455;53.224;6.000;2022-12-29T04:54:16;99570.31;;;8.21;100.00
10806;BME280;5455;53.224;6.000;2022-12-29T04:56:49;99583.47;;;8.35;100.00
10806;BME280;5455;53.224;6.000;2022-12-29T04:59:17;99569.88;;;8.49;100.00
10806;BME280;5455;53.224;6.000;2022-12-29T05:01:47;99573.44;;;8.53;100.00
10806;BME280;5455;53.224;6.000;2022-12-29T05:04:14;99573.44;;;8.53;100.00
10806;BME280;5455;53.224;6.000;2022-12-29T05:06:42;99578.59;;;8.58;100.00
10806;BME280;5455;53.224;6.000;2022-12-29T05:09:09;99566.50;;;8.66;100.00
10806;BME280;5455;53.224;6.000;2022-12-29T05:11:37;99567.34;;;8.70;100.00
10806;BME280;5455;53.224;6.000;2022-12-29T05:14:04;99570.50;;;8.72;100.00
10806;BME280;5455;53.224;6.000;2022-12-29T05:16:32;99560.25;;;8.69;100.00
10806;BME280;5455;53.224;6.000;2022-12-29T05:18:59;99561.78;;;8.63;100.00
10806;BME280;5455;53.224;6.000;2022-12-29T05:21:26;99564.81;;;8.55;100.00
10806;BME280;5455;53.224;6.000;2022-12-29T05:23:54;99548.97;;;8.41;100.00
10806;BME280;5455;53.224;6.000;2022-12-29T05:26:23;99552.06;;;8.36;100.00
10806;BME280;5455;53.224;6.000;2022-12-29T05:29:16;99563.00;;;8.32;100.00
10806;BME280;5455;53.224;6.000;2022-12-29T05:31:44;99568.84;;;8.27;100.00
10806;BME280;5455;53.224;6.000;2022-12-29T05:34:11;99563.72;;;8.26;100.00
10806;BME280;5455;53.224;6.000;2022-12-29T05:36:40;99558.22;;;8.26;100.00
10806;BME280;5455;53.224;6.000;2022-12-29T05:39:09;99561.72;;;8.26;100.00
10806;BME280;5455;53.224;6.000;2022-12-29T05:41:37;99562.88;;;8.22;100.00
10806;BME280;5455;53.224;6.000;2022-12-29T05:44:10;99573.06;;;8.21;100.00
10806;BME280;5455;53.224;6.000;2022-12-29T05:47:09;99563.66;;;8.22;100.00
10806;BME280;5455;53.224;6.000;2022-12-29T05:50:05;99574.25;;;8.24;100.00
10806;BME280;5455;53.224;6.000;2022-12-29T05:52:51;99562.25;;;8.32;100.00
10806;BME280;5455;53.224;6.000;2022-12-29T05:55:19;99567.78;;;8.39;100.00
10806;BME280;5455;53.224;6.000;2022-12-29T05:57:48;99560.09;;;8.52;100.00
10806;BME280;5455;53.224;6.000;2022-12-29T06:00:16;99575.03;;;8.54;100.00
10806;BME280;5455;53.224;6.000;2022-12-29T06:02:46;99558.53;;;8.54;100.00
10806;BME280;5455;53.224;6.000;2022-12-29T06:05:14;99574.25;;;8.57;100.00
10806;BME280;5455;53.224;6.000;2022-12-29T06:07:42;99578.53;;;8.51;100.00
10806;BME280;5455;53.224;6.000;2022-12-29T06:10:09;99569.78;;;8.42;100.00
10806;BME280;5455;53.224;6.000;2022-12-29T06:12:43;99569.78;;;8.42;100.00
10806;BME280;5455;53.224;6.000;2022-12-29T06:15:10;99574.13;;;8.43;100.00
10806;BME280;5455;53.224;6.000;2022-12-29T06:17:39;99574.78;;;8.33;100.00
10806;BME280;5455;53.224;6.000;2022-12-29T06:20:08;99567.16;;;8.19;100.00
10806;BME280;5455;53.224;6.000;2022-12-29T06:22:37;99581.59;;;8.13;100.00
10806;BME280;5455;53.224;6.000;2022-12-29T06:25:04;99567.34;;;8.04;100.00
10806;BME280;5455;53.224;6.000;2022-12-29T06:27:34;99566.50;;;8.00;100.00
10806;BME280;5455;53.224;6.000;2022-12-29T06:30:02;99563.75;;;8.00;100.00
10806;BME280;5455;53.224;6.000;2022-12-29T06:32:29;99556.72;;;8.02;100.00
10806;BME280;5455;53.224;6.000;2022-12-29T06:35:02;99562.19;;;7.99;100.00
10806;BME280;5455;53.224;6.000;2022-12-29T06:37:30;99564.94;;;7.99;100.00
10806;BME280;5455;53.224;6.000;2022-12-29T06:39:57;99565.00;;;8.06;100.00
10806;BME280;5455;53.224;6.000;2022-12-29T06:42:29;99574.88;;;8.10;100.00
10806;BME280;5455;53.224;6.000;2022-12-29T06:45:11;99577.75;;;8.21;100.00
10806;BME280;5455;53.224;6.000;2022-12-29T06:47:38;99575.44;;;8.23;100.00
10806;BME280;5455;53.224;6.000;2022-12-29T06:50:05;99576.94;;;8.20;100.00
10806;BME280;5455;53.224;6.000;2022-12-29T06:52:32;99588.69;;;8.17;100.00
10806;BME280;5455;53.224;6.000;2022-12-29T06:55:00;99589.13;;;8.19;100.00
10806;BME280;5455;53.224;6.000;2022-12-29T06:57:27;99589.16;;;8.23;100.00
10806;BME280;5455;53.224;6.000;2022-12-29T06:59:54;99587.31;;;8.30;100.00
10806;BME280;5455;53.224;6.000;2022-12-29T07:02:22;99582.72;;;8.38;100.00
10806;BME280;5455;53.224;6.000;2022-12-29T07:04:52;99590.22;;;8.45;100.00
10806;BME280;5455;53.224;6.000;2022-12-29T07:07:20;99578.81;;;8.43;100.00
10806;BME280;5455;53.224;6.000;2022-12-29T07:09:47;99590.50;;;8.36;100.00
10806;BME280;5455;53.224;6.000;2022-12-29T07:12:14;99588.16;;;8.35;100.00
10806;BME280;5455;53.224;6.000;2022-12-29T07:14:41;99598.84;;;8.43;100.00
10806;BME280;5455;53.224;6.000;2022-12-29T07:17:09;99597.66;;;8.44;100.00
10806;BME280;5455;53.224;6.000;2022-12-29T07:19:36;99591.41;;;8.47;100.00
10806;BME280;5455;53.224;6.000;2022-12-29T07:22:03;99606.41;;;8.53;100.00
10806;BME280;5455;53.224;6.000;2022-12-29T07:24:30;99602.56;;;8.61;100.00
10806;BME280;5455;53.224;6.000;2022-12-29T07:26:57;99613.63;;;8.68;100.00
10806;BME280;5455;53.224;6.000;2022-12-29T07:29:24;99607.06;;;8.76;100.00
10806;BME280;5455;53.224;6.000;2022-12-29T07:31:51;99604.72;;;8.78;100.00
10806;BME280;5455;53.224;6.000;2022-12-29T07:34:18;99608.66;;;8.81;100.00
10806;BME280;5455;53.224;6.000;2022-12-29T07:36:46;99609.06;;;8.79;100.00
10806;BME280;5455;53.224;6.000;2022-12-29T07:39:13;99612.66;;;8.87;100.00
10806;BME280;5455;53.224;6.000;2022-12-29T07:41:40;99607.59;;;8.93;100.00
10806;BME280;5455;53.224;6.000;2022-12-29T07:44:11;99605.69;;;8.97;100.00
10806;BME280;5455;53.224;6.000;2022-12-29T07:46:54;99607.66;;;9.00;100.00
10806;BME280;5455;53.224;6.000;2022-12-29T07:49:24;99622.53;;;8.92;100.00
10806;BME280;5455;53.224;6.000;2022-12-29T07:51:52;99617.69;;;8.81;100.00
10806;BME280;5455;53.224;6.000;2022-12-29T07:54:19;99620.38;;;8.74;100.00
10806;BME280;5455;53.224;6.000;2022-12-29T07:56:47;99633.28;;;8.70;100.00
10806;BME280;5455;53.224;6.000;2022-12-29T07:59:13;99625.38;;;8.65;100.00
10806;BME280;5455;53.224;6.000;2022-12-29T08:01:41;99629.66;;;8.63;100.00
10806;BME280;5455;53.224;6.000;2022-12-29T08:04:08;99637.84;;;8.59;100.00
10806;BME280;5455;53.224;6.000;2022-12-29T08:06:35;99628.38;;;8.53;100.00
10806;BME280;5455;53.224;6.000;2022-12-29T08:09:04;99629.13;;;8.50;100.00
10806;BME280;5455;53.224;6.000;2022-12-29T08:11:44;99632.31;;;8.52;100.00
10806;BME280;5455;53.224;6.000;2022-12-29T08:14:11;99634.31;;;8.55;100.00
10806;BME280;5455;53.224;6.000;2022-12-29T08:16:38;99638.59;;;8.56;100.00
10806;BME280;5455;53.224;6.000;2022-12-29T08:19:05;99627.63;;;8.56;100.00
10806;BME280;5455;53.224;6.000;2022-12-29T08:21:32;99632.34;;;8.56;100.00
10806;BME280;5455;53.224;6.000;2022-12-29T08:23:59;99633.09;;;8.56;100.00
10806;BME280;5455;53.224;6.000;2022-12-29T08:26:26;99636.66;;;8.57;100.00
10806;BME280;5455;53.224;6.000;2022-12-29T08:28:53;99635.50;;;8.58;100.00
10806;BME280;5455;53.224;6.000;2022-12-29T08:31:22;99642.19;;;8.60;100.00
10806;BME280;5455;53.224;6.000;2022-12-29T08:33:50;99639.09;;;8.62;100.00
10806;BME280;5455;53.224;6.000;2022-12-29T08:36:17;99640.25;;;8.61;100.00
10806;BME280;5455;53.224;6.000;2022-12-29T08:38:45;99631.22;;;8.60;100.00
10806;BME280;5455;53.224;6.000;2022-12-29T08:41:12;99625.34;;;8.62;100.00
10806;BME280;5455;53.224;6.000;2022-12-29T08:43:39;99643.84;;;8.68;100.00
10806;BME280;5455;53.224;6.000;2022-12-29T08:46:06;99642.69;;;8.69;100.00
10806;BME280;5455;53.224;6.000;2022-12-29T08:48:33;99629.34;;;8.68;100.00
10806;BME280;5455;53.224;6.000;2022-12-29T08:51:00;99625.03;;;8.70;100.00
10806;BME280;5455;53.224;6.000;2022-12-29T08:53:27;99627.03;;;8.73;100.00
10806;BME280;5455;53.224;6.000;2022-12-29T08:55:58;99632.94;;;8.75;100.00
10806;BME280;5455;53.224;6.000;2022-12-29T08:58:39;99646.63;;;8.72;100.00
10806;BME280;5455;53.224;6.000;2022-12-29T09:01:06;99636.78;;;8.67;100.00
10806;BME280;5455;53.224;6.000;2022-12-29T09:03:33;99651.28;;;8.64;100.00
10806;BME280;5455;53.224;6.000;2022-12-29T09:06:21;99648.44;;;8.57;100.00
10806;BME280;5455;53.224;6.000;2022-12-29T09:08:48;99639.75;;;8.52;100.00
10806;BME280;5455;53.224;6.000;2022-12-29T09:11:20;99644.34;;;8.44;100.00
10806;BME280;5455;53.224;6.000;2022-12-29T09:13:49;99642.28;;;8.34;100.00
10806;BME280;5455;53.224;6.000;2022-12-29T09:16:16;99642.97;;;8.27;100.00
10806;BME280;5455;53.224;6.000;2022-12-29T09:18:44;99648.53;;;8.31;100.00
10806;BME280;5455;53.224;6.000;2022-12-29T09:21:12;99651.31;;;8.35;100.00
10806;BME280;5455;53.224;6.000;2022-12-29T09:23:39;99649.78;;;8.37;100.00
10806;BME280;5455;53.224;6.000;2022-12-29T09:26:07;99658.81;;;8.41;100.00
10806;BME280;5455;53.224;6.000;2022-12-29T09:28:35;99666.59;;;8.36;100.00
10806;BME280;5455;53.224;6.000;2022-12-29T09:31:03;99664.13;;;8.27;100.00
10806;BME280;5455;53.224;6.000;2022-12-29T09:33:31;99669.53;;;8.20;100.00
10806;BME280;5455;53.224;6.000;2022-12-29T09:36:00;99662.66;;;8.07;100.00
10806;BME280;5455;53.224;6.000;2022-12-29T09:38:28;99677.03;;;7.97;100.00
10806;BME280;5455;53.224;6.000;2022-12-29T09:41:00;99683.19;;;7.90;100.00
10806;BME280;5455;53.224;6.000;2022-12-29T09:46:28;99690.13;;;7.81;100.00
10806;BME280;5455;53.224;6.000;2022-12-29T09:52:26;99696.03;;;7.83;100.00
10806;BME280;5455;53.224;6.000;2022-12-29T09:55:00;99688.16;;;7.81;100.00
10806;BME280;5455;53.224;6.000;2022-12-29T10:00:11;99687.06;;;7.86;100.00
10806;BME280;5455;53.224;6.000;2022-12-29T10:02:48;99694.16;;;7.87;100.00
10806;BME280;5455;53.224;6.000;2022-12-29T10:05:30;99714.19;;;7.91;100.00
10806;BME280;5455;53.224;6.000;2022-12-29T10:10:54;99714.44;;;8.08;100.00
10806;BME280;5455;53.224;6.000;2022-12-29T10:16:20;99742.19;;;8.26;100.00
10806;BME280;5455;53.224;6.000;2022-12-29T10:24:21;99770.50;;;8.30;100.00
10806;BME280;5455;53.224;6.000;2022-12-29T10:26:51;99762.69;;;8.32;100.00
10806;BME280;5455;53.224;6.000;2022-12-29T10:29:24;99768.97;;;8.32;100.00
10806;BME280;5455;53.224;6.000;2022-12-29T10:32:03;99769.81;;;8.37;100.00
10806;BME280;5455;53.224;6.000;2022-12-29T10:34:47;99772.66;;;8.44;100.00
10806;BME280;5455;53.224;6.000;2022-12-29T10:37:37;99782.19;;;8.53;100.00
10806;BME280;5455;53.224;6.000;2022-12-29T10:40:29;99785.91;;;8.64;100.00
10806;BME280;5455;53.224;6.000;2022-12-29T10:42:58;99789.13;;;8.70;100.00
10806;BME280;5455;53.224;6.000;2022-12-29T10:45:29;99790.00;;;8.77;100.00
10806;BME280;5455;53.224;6.000;2022-12-29T10:48:09;99806.59;;;8.84;100.00
10806;BME280;5455;53.224;6.000;2022-12-29T10:50:39;99805.16;;;8.94;100.00
10806;BME280;5455;53.224;6.000;2022-12-29T10:53:18;99815.84;;;9.03;100.00
10806;BME280;5455;53.224;6.000;2022-12-29T10:55:46;99811.97;;;9.07;100.00
10806;BME280;5455;53.224;6.000;2022-12-29T10:58:14;99823.00;;;9.11;100.00
10806;BME280;5455;53.224;6.000;2022-12-29T11:00:43;99828.19;;;9.16;100.00
10806;BME280;5455;53.224;6.000;2022-12-29T11:06:24;99833.41;;;9.24;100.00
10806;BME280;5455;53.224;6.000;2022-12-29T11:09:24;99835.78;;;9.26;100.00
10806;BME280;5455;53.224;6.000;2022-12-29T11:12:26;99842.16;;;9.33;100.00
10806;BME280;5455;53.224;6.000;2022-12-29T11:15:13;99852.38;;;9.33;100.00
10806;BME280;5455;53.224;6.000;2022-12-29T11:17:49;99856.31;;;9.35;100.00
10806;BME280;5455;53.224;6.000;2022-12-29T11:23:01;99854.91;;;9.49;100.00
10806;BME280;5455;53.224;6.000;2022-12-29T11:25:28;99861.56;;;9.48;100.00
10806;BME280;5455;53.224;6.000;2022-12-29T11:27:58;99865.72;;;9.34;100.00
10806;BME280;5455;53.224;6.000;2022-12-29T11:30:31;99873.81;;;9.20;100.00
10806;BME280;5455;53.224;6.000;2022-12-29T11:33:02;99886.34;;;9.18;100.00
10806;BME280;5455;53.224;6.000;2022-12-29T11:38:06;99898.38;;;9.06;100.00
10806;BME280;5455;53.224;6.000;2022-12-29T11:40:42;99909.09;;;9.15;100.00
10806;BME280;5455;53.224;6.000;2022-12-29T11:43:41;99911.06;;;9.14;100.00
10806;BME280;5455;53.224;6.000;2022-12-29T11:46:17;99908.81;;;8.94;100.00
10806;BME280;5455;53.224;6.000;2022-12-29T11:48:46;99919.34;;;8.88;100.00
10806;BME280;5455;53.224;6.000;2022-12-29T11:51:21;99925.03;;;8.76;100.00
10806;BME280;5455;53.224;6.000;2022-12-29T11:53:55;99943.00;;;8.70;100.00
10806;BME280;5455;53.224;6.000;2022-12-29T11:56:36;99933.91;;;8.66;100.00
10806;BME280;5455;53.224;6.000;2022-12-29T12:05:00;99944.44;;;8.86;100.00
10806;BME280;5455;53.224;6.000;2022-12-29T12:07:37;99946.88;;;8.92;100.00
10806;BME280;5455;53.224;6.000;2022-12-29T12:13:18;99944.97;;;8.96;100.00
10806;BME280;5455;53.224;6.000;2022-12-29T12:15:52;99961.09;;;8.97;100.00
10806;BME280;5455;53.224;6.000;2022-12-29T12:18:30;99960.28;;;8.97;100.00
10806;BME280;5455;53.224;6.000;2022-12-29T12:21:08;99969.69;;;8.96;100.00
10806;BME280;5455;53.224;6.000;2022-12-29T12:26:14;99983.88;;;8.98;100.00
10806;BME280;5455;53.224;6.000;2022-12-29T12:28:52;99978.38;;;8.98;100.00
10806;BME280;5455;53.224;6.000;2022-12-29T12:31:27;99994.09;;;8.97;100.00
10806;BME280;5455;53.224;6.000;2022-12-29T12:34:05;99985.44;;;8.99;100.00
10806;BME280;5455;53.224;6.000;2022-12-29T12:40:07;100005.56;;;9.03;100.00
10806;BME280;5455;53.224;6.000;2022-12-29T12:47:50;100005.88;;;8.98;100.00
10806;BME280;5455;53.224;6.000;2022-12-29T12:50:35;100014.13;;;8.98;100.00
10806;BME280;5455;53.224;6.000;2022-12-29T13:03:46;100023.31;;;8.82;100.00
10806;BME280;5455;53.224;6.000;2022-12-29T13:06:47;100022.38;;;8.75;100.00
10806;BME280;5455;53.224;6.000;2022-12-29T13:09:51;100026.97;;;8.67;100.00
10806;BME280;5455;53.224;6.000;2022-12-29T13:12:58;100038.69;;;8.64;100.00
10806;BME280;5455;53.224;6.000;2022-12-29T13:20:52;100053.22;;;8.65;100.00
10806;BME280;5455;53.224;6.000;2022-12-29T13:23:40;100047.84;;;8.72;100.00
10806;BME280;5455;53.224;6.000;2022-12-29T13:31:52;100052.38;;;8.61;100.00
10806;BME280;5455;53.224;6.000;2022-12-29T13:37:04;100065.31;;;8.41;100.00
10806;BME280;5455;53.224;6.000;2022-12-29T13:39:37;100078.28;;;8.41;100.00
10806;BME280;5455;53.224;6.000;2022-12-29T13:42:05;100075.88;;;8.39;100.00
10806;BME280;5455;53.224;6.000;2022-12-29T13:44:36;100072.72;;;8.37;100.00
10806;BME280;5455;53.224;6.000;2022-12-29T13:47:31;100080.66;;;8.42;100.00
10806;BME280;5455;53.224;6.000;2022-12-29T13:50:03;100079.13;;;8.45;100.00
10806;BME280;5455;53.224;6.000;2022-12-29T13:58:24;100083.66;;;8.56;100.00
10806;BME280;5455;53.224;6.000;2022-12-29T14:06:15;100103.69;;;8.76;100.00
10806;BME280;5455;53.224;6.000;2022-12-29T14:08:44;100099.63;;;8.70;100.00
10806;BME280;5455;53.224;6.000;2022-12-29T14:11:15;100109.69;;;8.62;100.00
10806;BME280;5455;53.224;6.000;2022-12-29T14:13:46;100104.06;;;8.55;100.00
10806;BME280;5455;53.224;6.000;2022-12-29T14:18:57;100116.28;;;8.39;100.00
10806;BME280;5455;53.224;6.000;2022-12-29T14:21:30;100114.63;;;8.34;100.00
10806;BME280;5455;53.224;6.000;2022-12-29T14:26:59;100125.38;;;8.23;100.00
10806;BME280;5455;53.224;6.000;2022-12-29T14:31:56;100112.66;;;8.15;100.00
10806;BME280;5455;53.224;6.000;2022-12-29T14:34:28;100118.06;;;8.12;100.00
10806;BME280;5455;53.224;6.000;2022-12-29T14:37:00;100123.47;;;8.08;100.00
10806;BME280;5455;53.224;6.000;2022-12-29T14:39:38;100114.91;;;8.10;100.00
10806;BME280;5455;53.224;6.000;2022-12-29T14:44:57;100121.03;;;8.03;100.00
10806;BME280;5455;53.224;6.000;2022-12-29T14:47:27;100127.94;;;7.97;100.00
10806;BME280;5455;53.224;6.000;2022-12-29T14:50:04;100121.94;;;7.92;100.00
10806;BME280;5455;53.224;6.000;2022-12-29T14:52:58;100127.00;;;7.90;100.00
10806;BME280;5455;53.224;6.000;2022-12-29T14:58:19;100126.47;;;7.84;100.00
10806;BME280;5455;53.224;6.000;2022-12-29T15:00:48;100120.56;;;7.82;100.00
10806;BME280;5455;53.224;6.000;2022-12-29T15:03:24;100115.78;;;7.79;100.00
10806;BME280;5455;53.224;6.000;2022-12-29T15:05:55;100119.75;;;7.82;100.00
10806;BME280;5455;53.224;6.000;2022-12-29T15:08:32;100123.66;;;7.81;100.00
10806;BME280;5455;53.224;6.000;2022-12-29T15:11:12;100117.38;;;7.80;100.00
10806;BME280;5455;53.224;6.000;2022-12-29T15:13:42;100123.59;;;7.77;100.00
10806;BME280;5455;53.224;6.000;2022-12-29T15:16:29;100117.72;;;7.78;100.00
10806;BME280;5455;53.224;6.000;2022-12-29T15:18:58;100129.22;;;7.84;100.00
10806;BME280;5455;53.224;6.000;2022-12-29T15:21:30;100128.06;;;7.85;100.00
10806;BME280;5455;53.224;6.000;2022-12-29T15:23:58;100127.34;;;7.88;100.00
10806;BME280;5455;53.224;6.000;2022-12-29T15:26:44;100129.75;;;7.90;100.00
10806;BME280;5455;53.224;6.000;2022-12-29T15:29:41;100134.06;;;7.91;100.00
10806;BME280;5455;53.224;6.000;2022-12-29T15:34:47;100127.72;;;7.87;100.00
10806;BME280;5455;53.224;6.000;2022-12-29T15:37:23;100126.94;;;7.86;100.00
10806;BME280;5455;53.224;6.000;2022-12-29T15:39:51;100125.31;;;7.85;100.00
10806;BME280;5455;53.224;6.000;2022-12-29T15:44:54;100142.19;;;8.03;100.00
10806;BME280;5455;53.224;6.000;2022-12-29T15:47:36;100142.97;;;8.03;100.00
10806;BME280;5455;53.224;6.000;2022-12-29T15:50:34;100157.13;;;8.05;100.00
10806;BME280;5455;53.224;6.000;2022-12-29T15:53:03;100148.03;;;8.01;100.00